Time;durP1;ratioP1;P1;durP2;ratioP2;P2;SDS_P1;SDS_P2;PMS_P1;PMS_P2;Temp;Humidity;BMP_temperature;BMP_pressure;BME280_temperature;BME280_humidity;BME280_pressure;Samples;Min_cycle;Max_cycle;Signal;HPM_P1;HPM_P2
2024/01/16 00:01:14;;;;;;;11.02;5.93;;;;;;;;;;5013837;28;20026;-62
2024/01/16 00:03:39;;;;;;;9.15;5.32;;;;;;;;;;5014106;28;20040;-62
2024/01/16 00:06:06;;;;;;;13.77;7.32;;;;;;;;;;5013867;28;20026;-62
2024/01/16 00:08:32;;;;;;;11.18;6.43;;;;;;;;;;5013021;28;20414;-62
2024/01/16 00:10:57;;;;;;;8.32;4.45;;;;;;;;;;5014355;28;20120;-62
2024/01/16 00:13:22;;;;;;;9.60;5.93;;;;;;;;;;4996114;28;20043;-62
2024/01/16 00:15:49;;;;;;;12.88;6.90;;;;;;;;;;5014124;28;20030;-62
2024/01/16 00:18:15;;;;;;;10.90;6.07;;;;;;;;;;5013725;28;20040;-63
2024/01/16 00:20:40;;;;;;;9.93;6.47;;;;;;;;;;5013617;28;20421;-63
2024/01/16 00:23:05;;;;;;;12.80;6.78;;;;;;;;;;5013735;28;20509;-62
2024/01/16 00:25:32;;;;;;;11.82;7.05;;;;;;;;;;5013447;28;20029;-62
2024/01/16 00:27:57;;;;;;;14.48;7.47;;;;;;;;;;5013723;28;20030;-62
2024/01/16 00:30:22;;;;;;;13.68;6.90;;;;;;;;;;5014077;28;20137;-65
2024/01/16 00:32:48;;;;;;;10.02;5.75;;;;;;;;;;5013972;28;20037;-65
2024/01/16 00:35:13;;;;;;;8.48;5.18;;;;;;;;;;5014113;28;20037;-65
2024/01/16 00:37:39;;;;;;;11.20;5.88;;;;;;;;;;5013506;28;20030;-65
2024/01/16 00:40:05;;;;;;;8.95;6.10;;;;;;;;;;5013665;28;20458;-65
2024/01/16 00:42:31;;;;;;;11.00;6.10;;;;;;;;;;5013782;28;20089;-64
2024/01/16 00:44:57;;;;;;;9.82;6.15;;;;;;;;;;5013925;28;20026;-64
2024/01/16 00:47:22;;;;;;;10.77;6.53;;;;;;;;;;5013623;28;20052;-64
2024/01/16 00:49:48;;;;;;;8.82;5.90;;;;;;;;;;5013245;28;20026;-64
2024/01/16 00:52:13;;;;;;;9.27;4.97;;;;;;;;;;5013616;28;20026;-65
2024/01/16 00:54:39;;;;;;;7.93;5.70;;;;;;;;;;5013252;28;20465;-65
2024/01/16 00:57:05;;;;;;;11.70;6.60;;;;;;;;;;5015445;28;20030;-65
2024/01/16 00:59:31;;;;;;;10.13;6.45;;;;;;;;;;5016294;28;20041;-64
2024/01/16 01:01:56;;;;;;;10.32;6.45;;;;;;;;;;5016881;28;20107;-64
2024/01/16 01:04:21;;;;;;;10.68;6.40;;;;;;;;;;5016817;28;20057;-64
2024/01/16 01:06:47;;;;;;;11.30;6.47;;;;;;;;;;5017038;28;20040;-64
2024/01/16 01:09:13;;;;;;;12.35;7.82;;;;;;;;;;5017158;28;20404;-63
2024/01/16 01:11:39;;;;;;;11.90;7.22;;;;;;;;;;5016606;28;20034;-63
2024/01/16 01:14:04;;;;;;;5.82;3.85;;;;;;;;;;5016223;28;20030;-64
2024/01/16 01:16:30;;;;;;;8.88;4.80;;;;;;;;;;4999522;28;20041;-64
2024/01/16 01:18:55;;;;;;;9.70;5.80;;;;;;;;;;5016154;28;20022;-63
2024/01/16 01:21:21;;;;;;;9.13;5.63;;;;;;;;;;5015387;28;20030;-62
2024/01/16 01:23:46;;;;;;;8.25;5.60;;;;;;;;;;5016515;28;20117;-63
2024/01/16 01:26:13;;;;;;;7.40;5.25;;;;;;;;;;5016380;28;20473;-63
2024/01/16 01:28:40;;;;;;;10.13;5.78;;;;;;;;;;5015818;28;20401;-63
2024/01/16 01:31:05;;;;;;;9.23;5.53;;;;;;;;;;5016358;28;20470;-64
2024/01/16 01:33:30;;;;;;;8.98;5.57;;;;;;;;;;5015994;28;20068;-62
2024/01/16 01:35:56;;;;;;;10.43;5.45;;;;;;;;;;5016592;28;20462;-63
2024/01/16 01:38:21;;;;;;;7.10;5.22;;;;;;;;;;5016368;28;20117;-65
2024/01/16 01:40:47;;;;;;;7.88;5.18;;;;;;;;;;5016052;28;20118;-63
2024/01/16 01:43:24;;;;;;;7.78;4.95;;;;;;;;;;5016303;28;20022;-64
2024/01/16 01:46:07;;;;;;;10.52;6.07;;;;;;;;;;5016236;28;20105;-63
2024/01/16 01:48:33;;;;;;;8.25;5.90;;;;;;;;;;5015921;28;20029;-63
2024/01/16 01:50:59;;;;;;;11.32;6.82;;;;;;;;;;5015924;28;20109;-63
2024/01/16 01:53:24;;;;;;;10.95;6.55;;;;;;;;;;4998507;28;20033;-64
2024/01/16 01:55:50;;;;;;;11.23;6.50;;;;;;;;;;5015933;28;20497;-64
2024/01/16 01:58:15;;;;;;;11.10;6.57;;;;;;;;;;5015956;28;20042;-64
2024/01/16 02:00:41;;;;;;;10.13;5.90;;;;;;;;;;5015815;28;20026;-64
2024/01/16 02:03:06;;;;;;;10.88;6.55;;;;;;;;;;5015841;28;20033;-64
2024/01/16 02:05:33;;;;;;;9.52;5.18;;;;;;;;;;5015442;28;20022;-66
2024/01/16 02:07:58;;;;;;;9.07;6.28;;;;;;;;;;5014681;28;20034;-66
2024/01/16 02:10:24;;;;;;;10.55;5.60;;;;;;;;;;5015439;28;20389;-63
2024/01/16 02:12:50;;;;;;;7.28;5.70;;;;;;;;;;5015315;28;20030;-60
2024/01/16 02:15:15;;;;;;;10.95;6.00;;;;;;;;;;4998297;28;20029;-60
2024/01/16 02:20:14;;;;;;;8.32;5.88;;;;;;;;;;5050349;23;20025;-62
2024/01/16 02:23:12;;;;;;;8.10;5.85;;;;;;;;;;5065056;23;20053;-61
2024/01/16 02:25:41;;;;;;;7.93;5.65;;;;;;;;;;5042296;23;20439;-61
2024/01/16 02:28:07;;;;;;;10.45;6.22;;;;;;;;;;5034745;28;20412;-58
2024/01/16 02:30:33;;;;;;;10.15;6.88;;;;;;;;;;5034833;28;20089;-58
2024/01/16 02:32:58;;;;;;;7.82;5.50;;;;;;;;;;5035008;28;20117;-58
2024/01/16 02:35:24;;;;;;;10.15;6.07;;;;;;;;;;5017631;28;20124;-58
2024/01/16 02:37:49;;;;;;;10.15;6.82;;;;;;;;;;5017330;28;20025;-58
2024/01/16 02:40:15;;;;;;;11.07;6.60;;;;;;;;;;5034997;28;20504;-58
2024/01/16 02:42:40;;;;;;;6.47;5.47;;;;;;;;;;5035330;28;20376;-58
2024/01/16 02:45:06;;;;;;;9.82;6.47;;;;;;;;;;5035204;28;20033;-59
2024/01/16 02:47:32;;;;;;;11.80;6.22;;;;;;;;;;5049439;28;20034;-60
2024/01/16 02:49:57;;;;;;;7.57;5.95;;;;;;;;;;5034691;28;20060;-60
2024/01/16 02:52:23;;;;;;;9.65;5.10;;;;;;;;;;5034384;28;20037;-59
2024/01/16 02:54:48;;;;;;;9.60;6.40;;;;;;;;;;5017245;28;20029;-59
2024/01/16 02:57:14;;;;;;;9.10;5.78;;;;;;;;;;5034168;28;20088;-59
2024/01/16 02:59:39;;;;;;;10.88;6.40;;;;;;;;;;5034667;28;20025;-59
2024/01/16 03:02:05;;;;;;;10.40;6.22;;;;;;;;;;5033854;28;20041;-59
2024/01/16 03:04:30;;;;;;;7.60;6.32;;;;;;;;;;5033665;28;20022;-59
2024/01/16 03:06:55;;;;;;;7.25;6.00;;;;;;;;;;5034235;28;20052;-58
2024/01/16 03:09:21;;;;;;;8.32;6.03;;;;;;;;;;5016879;28;20120;-58
2024/01/16 03:11:46;;;;;;;7.22;5.65;;;;;;;;;;5034350;28;20030;-58
2024/01/16 03:14:13;;;;;;;6.40;5.38;;;;;;;;;;5034550;28;20037;-58
2024/01/16 03:16:38;;;;;;;6.25;5.65;;;;;;;;;;5034456;28;20049;-59
2024/01/16 03:19:04;;;;;;;6.63;5.85;;;;;;;;;;5016387;28;20071;-59
2024/01/16 03:21:29;;;;;;;8.48;5.97;;;;;;;;;;5034214;28;20461;-61
2024/01/16 03:23:54;;;;;;;6.82;5.45;;;;;;;;;;5034612;28;20033;-61
2024/01/16 03:26:20;;;;;;;7.47;5.72;;;;;;;;;;5034242;28;20054;-62
2024/01/16 03:28:45;;;;;;;7.07;5.32;;;;;;;;;;5034260;28;20045;-62
2024/01/16 03:31:12;;;;;;;6.53;4.82;;;;;;;;;;5034159;28;20021;-62
2024/01/16 03:33:41;;;;;;;5.72;4.88;;;;;;;;;;5033941;28;20045;-62
2024/01/16 03:36:07;;;;;;;6.10;5.13;;;;;;;;;;5016541;28;20044;-62
2024/01/16 03:38:33;;;;;;;5.25;4.60;;;;;;;;;;5034225;28;20029;-62
2024/01/16 03:40:59;;;;;;;6.80;4.57;;;;;;;;;;5015812;28;20033;-62
2024/01/16 03:43:24;;;;;;;5.78;4.00;;;;;;;;;;5016560;28;20059;-61
2024/01/16 03:45:53;;;;;;;5.07;4.20;;;;;;;;;;5033739;28;20108;-61
2024/01/16 03:48:18;;;;;;;4.78;3.88;;;;;;;;;;5034217;28;20033;-62
2024/01/16 03:50:45;;;;;;;4.70;4.22;;;;;;;;;;5033828;28;20052;-62
2024/01/16 03:53:10;;;;;;;5.35;4.32;;;;;;;;;;5016363;28;20056;-62
2024/01/16 03:55:36;;;;;;;4.55;3.35;;;;;;;;;;5033659;28;20500;-62
2024/01/16 03:58:01;;;;;;;4.53;3.55;;;;;;;;;;5033769;28;20029;-62
2024/01/16 04:00:26;;;;;;;4.55;3.47;;;;;;;;;;5034051;28;20245;-62
2024/01/16 04:02:52;;;;;;;4.28;3.88;;;;;;;;;;5033787;28;20053;-63
2024/01/16 04:05:17;;;;;;;4.65;4.00;;;;;;;;;;5033686;28;20040;-62
2024/01/16 04:07:43;;;;;;;6.00;4.00;;;;;;;;;;5033556;28;20361;-62
2024/01/16 04:10:09;;;;;;;7.85;5.38;;;;;;;;;;5033856;28;20033;-62
2024/01/16 04:12:34;;;;;;;5.72;4.55;;;;;;;;;;5033721;28;20076;-61
2024/01/16 04:15:00;;;;;;;7.28;5.05;;;;;;;;;;5033970;28;20053;-61
2024/01/16 04:17:25;;;;;;;6.57;4.30;;;;;;;;;;5033719;28;20037;-61
2024/01/16 04:19:51;;;;;;;4.28;3.72;;;;;;;;;;5033931;28;20036;-60
2024/01/16 04:22:16;;;;;;;5.05;3.47;;;;;;;;;;5033664;28;20029;-61
2024/01/16 04:24:41;;;;;;;6.28;4.40;;;;;;;;;;5033751;28;20036;-61
2024/01/16 04:27:07;;;;;;;4.97;4.10;;;;;;;;;;5033275;28;20049;-61
2024/01/16 04:29:32;;;;;;;4.35;3.50;;;;;;;;;;5048860;28;20025;-62
2024/01/16 04:31:58;;;;;;;4.22;2.90;;;;;;;;;;5034836;28;20047;-61
2024/01/16 04:34:23;;;;;;;4.15;2.95;;;;;;;;;;5019677;28;20034;-59
2024/01/16 04:36:48;;;;;;;3.10;2.83;;;;;;;;;;5037171;28;20372;-59
2024/01/16 04:39:14;;;;;;;3.22;2.70;;;;;;;;;;5019140;28;20025;-59
2024/01/16 04:41:39;;;;;;;2.88;2.60;;;;;;;;;;5037144;28;20099;-60
2024/01/16 04:44:05;;;;;;;2.78;2.47;;;;;;;;;;5019396;28;20079;-60
2024/01/16 04:46:30;;;;;;;2.22;2.03;;;;;;;;;;5036857;28;20049;-61
2024/01/16 04:48:55;;;;;;;2.50;2.25;;;;;;;;;;5036068;28;20112;-61
2024/01/16 04:51:21;;;;;;;2.20;2.10;;;;;;;;;;5036363;28;20127;-61
2024/01/16 04:53:46;;;;;;;3.13;1.77;;;;;;;;;;5035785;28;20061;-61
2024/01/16 04:56:11;;;;;;;1.90;1.80;;;;;;;;;;5035691;28;20037;-60
2024/01/16 04:58:37;;;;;;;1.77;1.67;;;;;;;;;;5017249;28;20037;-61
2024/01/16 05:01:03;;;;;;;2.13;1.88;;;;;;;;;;5035022;28;20064;-61
2024/01/16 05:03:29;;;;;;;1.50;1.40;;;;;;;;;;5034098;28;20029;-61
2024/01/16 05:05:55;;;;;;;1.80;1.70;;;;;;;;;;5035253;28;20079;-60
2024/01/16 05:08:21;;;;;;;2.22;1.73;;;;;;;;;;5036665;28;20029;-60
2024/01/16 05:10:47;;;;;;;2.25;1.60;;;;;;;;;;5036734;28;20045;-60
2024/01/16 05:13:12;;;;;;;2.05;1.67;;;;;;;;;;5036678;28;20026;-60
2024/01/16 05:15:38;;;;;;;2.08;1.88;;;;;;;;;;5002471;28;20026;-59
2024/01/16 05:18:03;;;;;;;2.50;2.13;;;;;;;;;;5036824;28;20452;-59
2024/01/16 05:20:29;;;;;;;2.80;1.70;;;;;;;;;;5036094;28;20034;-59
2024/01/16 05:22:55;;;;;;;3.30;1.88;;;;;;;;;;5036459;28;20033;-59
2024/01/16 05:25:21;;;;;;;4.45;2.28;;;;;;;;;;5019235;28;20025;-59
2024/01/16 05:27:46;;;;;;;3.40;2.10;;;;;;;;;;5002238;28;20045;-59
2024/01/16 05:30:12;;;;;;;3.15;2.28;;;;;;;;;;5036509;28;20384;-59
2024/01/16 05:32:39;;;;;;;3.60;2.42;;;;;;;;;;5036198;28;20045;-59
2024/01/16 05:35:04;;;;;;;4.53;2.63;;;;;;;;;;5018645;28;20029;-59
2024/01/16 05:37:30;;;;;;;7.03;3.72;;;;;;;;;;5036226;28;20124;-59
2024/01/16 05:39:55;;;;;;;8.70;5.15;;;;;;;;;;5036347;28;20072;-59
2024/01/16 05:42:21;;;;;;;3.80;2.50;;;;;;;;;;5036099;28;20524;-60
2024/01/16 05:44:46;;;;;;;4.05;2.75;;;;;;;;;;5036112;28;20021;-59
2024/01/16 05:47:12;;;;;;;4.03;2.20;;;;;;;;;;5035894;28;20389;-59
2024/01/16 05:49:37;;;;;;;4.38;2.25;;;;;;;;;;5035933;28;20381;-59
2024/01/16 05:52:03;;;;;;;3.60;2.53;;;;;;;;;;5036270;28;20160;-59
2024/01/16 05:54:28;;;;;;;2.35;1.80;;;;;;;;;;5035119;28;20037;-59
2024/01/16 05:56:54;;;;;;;2.22;2.03;;;;;;;;;;5035842;28;20040;-59
2024/01/16 05:59:19;;;;;;;3.10;2.30;;;;;;;;;;5035752;28;20025;-59
2024/01/16 06:01:45;;;;;;;3.65;2.53;;;;;;;;;;5036090;28;20439;-59
2024/01/16 06:04:10;;;;;;;6.38;5.05;;;;;;;;;;5035901;28;20021;-59
2024/01/16 06:06:36;;;;;;;15.32;11.30;;;;;;;;;;5035940;28;20116;-59
2024/01/16 06:09:05;;;;;;;10.13;7.18;;;;;;;;;;5017944;28;20034;-59
2024/01/16 06:11:31;;;;;;;5.22;4.82;;;;;;;;;;5035534;28;20033;-59
2024/01/16 06:13:58;;;;;;;3.85;3.40;;;;;;;;;;5035388;28;20030;-59
2024/01/16 06:16:24;;;;;;;2.58;2.38;;;;;;;;;;5034703;28;20037;-59
2024/01/16 06:18:50;;;;;;;3.63;2.67;;;;;;;;;;5016197;28;20083;-59
2024/01/16 06:21:16;;;;;;;3.60;3.22;;;;;;;;;;5016198;28;20042;-59
2024/01/16 06:23:42;;;;;;;3.85;2.65;;;;;;;;;;5033874;28;20025;-59
2024/01/16 06:26:07;;;;;;;4.63;2.15;;;;;;;;;;5033504;28;20535;-59
2024/01/16 06:28:33;;;;;;;3.20;2.30;;;;;;;;;;5033888;28;20037;-59
2024/01/16 06:30:58;;;;;;;3.28;2.85;;;;;;;;;;5033876;28;20037;-59
2024/01/16 06:33:23;;;;;;;4.05;3.47;;;;;;;;;;5017231;28;20128;-59
2024/01/16 06:35:49;;;;;;;6.35;5.60;;;;;;;;;;5034781;28;20034;-59
2024/01/16 06:38:14;;;;;;;7.03;5.22;;;;;;;;;;5034824;28;20051;-59
2024/01/16 06:40:40;;;;;;;5.80;4.18;;;;;;;;;;5034575;28;20036;-59
2024/01/16 06:43:06;;;;;;;5.05;3.20;;;;;;;;;;5034553;28;20034;-59
2024/01/16 06:45:31;;;;;;;4.57;3.30;;;;;;;;;;5034503;28;20212;-59
2024/01/16 06:47:56;;;;;;;4.30;3.17;;;;;;;;;;5034415;28;20537;-59
2024/01/16 06:50:23;;;;;;;3.38;3.17;;;;;;;;;;5034454;28;20492;-59
2024/01/16 06:52:48;;;;;;;3.08;2.83;;;;;;;;;;5034455;28;20025;-59
2024/01/16 06:55:13;;;;;;;3.95;2.80;;;;;;;;;;5033778;28;20500;-59
2024/01/16 06:57:39;;;;;;;4.18;2.88;;;;;;;;;;5000187;28;20043;-59
2024/01/16 07:00:07;;;;;;;3.85;2.85;;;;;;;;;;5034215;28;20507;-59
2024/01/16 07:02:32;;;;;;;3.55;3.10;;;;;;;;;;5016565;28;20033;-59
2024/01/16 07:04:58;;;;;;;3.22;2.75;;;;;;;;;;5034216;28;20032;-59
2024/01/16 07:07:24;;;;;;;4.53;3.10;;;;;;;;;;5034184;28;20468;-59
2024/01/16 07:09:50;;;;;;;4.88;3.60;;;;;;;;;;5034115;28;20571;-59
2024/01/16 07:12:15;;;;;;;11.40;5.03;;;;;;;;;;5034091;28;20073;-59
2024/01/16 07:14:41;;;;;;;15.32;6.75;;;;;;;;;;5034030;28;20030;-59
2024/01/16 07:17:07;;;;;;;8.98;4.57;;;;;;;;;;5016243;28;20017;-59
2024/01/16 07:19:33;;;;;;;10.85;5.68;;;;;;;;;;5034042;28;20037;-59
2024/01/16 07:21:58;;;;;;;8.38;4.35;;;;;;;;;;5016211;28;20021;-59
2024/01/16 07:24:24;;;;;;;8.23;3.83;;;;;;;;;;5016574;28;20025;-59
2024/01/16 07:26:49;;;;;;;5.72;3.50;;;;;;;;;;5033935;28;20041;-59
2024/01/16 07:29:15;;;;;;;5.15;3.22;;;;;;;;;;5033811;28;20036;-59
2024/01/16 07:31:41;;;;;;;9.45;4.00;;;;;;;;;;5033824;28;20025;-59
2024/01/16 07:34:06;;;;;;;11.68;4.70;;;;;;;;;;5033773;28;20040;-59
2024/01/16 07:36:32;;;;;;;8.85;3.40;;;;;;;;;;5016072;28;20402;-59
2024/01/16 07:38:57;;;;;;;6.93;3.28;;;;;;;;;;5015921;28;20121;-59
2024/01/16 07:41:22;;;;;;;4.47;2.70;;;;;;;;;;5033662;28;20063;-59
2024/01/16 07:43:48;;;;;;;2.83;2.17;;;;;;;;;;5015950;28;20026;-59
2024/01/16 07:46:13;;;;;;;8.40;3.38;;;;;;;;;;5033617;28;20041;-59
2024/01/16 07:48:38;;;;;;;11.95;4.97;;;;;;;;;;5033587;28;20033;-59
2024/01/16 07:51:05;;;;;;;11.95;5.22;;;;;;;;;;5015938;28;20064;-59
2024/01/16 07:53:31;;;;;;;11.63;6.68;;;;;;;;;;5033571;28;20065;-59
2024/01/16 07:55:56;;;;;;;12.40;6.03;;;;;;;;;;5015747;28;20065;-59
2024/01/16 07:58:22;;;;;;;18.17;8.23;;;;;;;;;;5015715;28;20036;-59
2024/01/16 08:00:47;;;;;;;16.50;8.40;;;;;;;;;;5033440;28;20018;-59
2024/01/16 08:03:14;;;;;;;14.57;8.45;;;;;;;;;;5033428;28;20389;-59
2024/01/16 08:05:39;;;;;;;17.17;9.48;;;;;;;;;;5033425;28;20107;-59
2024/01/16 08:08:07;;;;;;;13.82;9.63;;;;;;;;;;5037065;28;20076;-59
2024/01/16 08:10:33;;;;;;;17.98;11.18;;;;;;;;;;5037410;28;20500;-59
2024/01/16 08:12:58;;;;;;;14.20;8.88;;;;;;;;;;5037417;28;20030;-59
2024/01/16 08:15:23;;;;;;;14.95;8.02;;;;;;;;;;5037366;28;20021;-59
2024/01/16 08:17:49;;;;;;;17.00;8.45;;;;;;;;;;5037293;28;20037;-59
2024/01/16 08:20:14;;;;;;;17.75;7.95;;;;;;;;;;5037199;28;20100;-59
2024/01/16 08:22:39;;;;;;;7.90;4.68;;;;;;;;;;5037389;28;20044;-59
2024/01/16 08:25:05;;;;;;;4.85;4.18;;;;;;;;;;5037290;28;20064;-59
2024/01/16 08:27:31;;;;;;;7.43;4.72;;;;;;;;;;5019268;28;20069;-59
2024/01/16 08:29:56;;;;;;;8.57;4.97;;;;;;;;;;5037124;28;20514;-59
2024/01/16 08:32:21;;;;;;;9.27;5.15;;;;;;;;;;5037022;28;20491;-59
2024/01/16 08:34:47;;;;;;;9.38;5.93;;;;;;;;;;5019187;28;20025;-59
2024/01/16 08:37:12;;;;;;;11.73;6.00;;;;;;;;;;5037051;28;20036;-59
2024/01/16 08:39:38;;;;;;;9.27;6.20;;;;;;;;;;5019147;28;20381;-59
2024/01/16 08:42:03;;;;;;;7.25;4.75;;;;;;;;;;5019135;28;20033;-59
2024/01/16 08:44:29;;;;;;;3.80;3.42;;;;;;;;;;5037027;28;20034;-59
2024/01/16 08:46:54;;;;;;;3.75;3.25;;;;;;;;;;5019134;28;20028;-59
2024/01/16 08:49:20;;;;;;;6.05;4.03;;;;;;;;;;5036846;28;20037;-59
2024/01/16 08:51:45;;;;;;;5.93;4.40;;;;;;;;;;5036795;28;20029;-59
2024/01/16 08:54:10;;;;;;;6.07;4.93;;;;;;;;;;5018903;28;20030;-59
2024/01/16 08:56:36;;;;;;;7.38;5.43;;;;;;;;;;5018907;28;20071;-59
2024/01/16 08:59:01;;;;;;;7.88;5.90;;;;;;;;;;5036495;28;20384;-59
2024/01/16 09:01:27;;;;;;;7.40;6.03;;;;;;;;;;5019000;28;20030;-59
2024/01/16 09:03:52;;;;;;;8.48;6.65;;;;;;;;;;5036538;28;20032;-59
2024/01/16 09:06:18;;;;;;;10.45;6.93;;;;;;;;;;5036434;28;20030;-59
2024/01/16 09:08:44;;;;;;;11.68;7.78;;;;;;;;;;5036378;28;20026;-59
2024/01/16 09:11:11;;;;;;;12.00;8.35;;;;;;;;;;5036326;28;20087;-59
2024/01/16 09:13:37;;;;;;;16.15;9.45;;;;;;;;;;5036298;28;20400;-59
2024/01/16 09:16:02;;;;;;;16.33;9.85;;;;;;;;;;5018480;28;20037;-59
2024/01/16 09:18:27;;;;;;;8.90;7.10;;;;;;;;;;5035632;28;20021;-59
2024/01/16 09:20:53;;;;;;;6.70;5.25;;;;;;;;;;5036328;28;20026;-59
2024/01/16 09:23:18;;;;;;;7.70;5.38;;;;;;;;;;5036434;28;20038;-59
2024/01/16 09:25:43;;;;;;;7.43;5.60;;;;;;;;;;5035905;28;20036;-59
2024/01/16 09:28:09;;;;;;;5.10;4.63;;;;;;;;;;5001940;28;20029;-59
2024/01/16 09:30:35;;;;;;;7.25;5.35;;;;;;;;;;5035994;28;20025;-59
2024/01/16 09:33:01;;;;;;;6.63;4.75;;;;;;;;;;5036061;28;20037;-59
2024/01/16 09:35:26;;;;;;;24.90;15.75;;;;;;;;;;5035885;28;20540;-58
2024/01/16 09:37:51;;;;;;;14.57;10.35;;;;;;;;;;5035915;28;20029;-59
2024/01/16 09:40:17;;;;;;;9.68;7.03;;;;;;;;;;5035780;28;20033;-59
2024/01/16 09:42:42;;;;;;;10.40;7.60;;;;;;;;;;5035782;28;20108;-64
2024/01/16 09:45:08;;;;;;;10.98;8.27;;;;;;;;;;5035859;28;20488;-64
2024/01/16 09:47:34;;;;;;;11.68;8.52;;;;;;;;;;5035739;28;20030;-64
2024/01/16 09:50:00;;;;;;;11.77;9.35;;;;;;;;;;5018183;28;20033;-64
2024/01/16 09:52:25;;;;;;;9.77;6.07;;;;;;;;;;5035619;28;20479;-64
2024/01/16 09:54:51;;;;;;;7.10;4.82;;;;;;;;;;5035670;28;20037;-63
2024/01/16 09:57:18;;;;;;;7.13;5.72;;;;;;;;;;5035443;28;20038;-63
2024/01/16 09:59:44;;;;;;;8.07;5.35;;;;;;;;;;5035304;28;20044;-63
2024/01/16 10:02:10;;;;;;;11.02;6.88;;;;;;;;;;5017836;28;20109;-63
2024/01/16 10:04:35;;;;;;;10.40;7.68;;;;;;;;;;5017595;28;20045;-63
2024/01/16 10:07:01;;;;;;;13.90;8.45;;;;;;;;;;5035317;28;20140;-63
2024/01/16 10:09:26;;;;;;;10.63;6.50;;;;;;;;;;5017516;28;20095;-63
2024/01/16 10:11:52;;;;;;;5.88;4.70;;;;;;;;;;5035185;28;20095;-63
2024/01/16 10:14:18;;;;;;;4.57;3.72;;;;;;;;;;5061620;23;20088;-59
2024/01/16 10:16:57;;;;;;;5.93;4.05;;;;;;;;;;5074665;23;20092;-63
2024/01/16 10:19:27;;;;;;;7.57;4.35;;;;;;;;;;5066779;23;20095;-58
2024/01/16 10:21:52;;;;;;;10.30;5.25;;;;;;;;;;5056069;23;20045;-59
2024/01/16 10:24:19;;;;;;;6.35;4.15;;;;;;;;;;5047203;23;20053;-63
2024/01/16 10:26:44;;;;;;;4.03;3.63;;;;;;;;;;5017660;28;20428;-63
2024/01/16 10:29:10;;;;;;;7.25;4.70;;;;;;;;;;5016376;28;20030;-63
2024/01/16 10:31:38;;;;;;;8.57;4.60;;;;;;;;;;5034889;28;20051;-63
2024/01/16 10:34:18;;;;;;;4.65;3.58;;;;;;;;;;5034810;28;20069;-63
2024/01/16 10:36:44;;;;;;;6.30;3.78;;;;;;;;;;5035013;28;20388;-63
2024/01/16 10:39:09;;;;;;;4.32;3.35;;;;;;;;;;5034628;28;20128;-63
2024/01/16 10:41:37;;;;;;;4.18;3.78;;;;;;;;;;5034660;28;20056;-63
2024/01/16 10:44:08;;;;;;;6.35;4.43;;;;;;;;;;5034633;28;20030;-63
2024/01/16 10:46:35;;;;;;;4.32;3.75;;;;;;;;;;5034885;28;20479;-63
2024/01/16 10:49:01;;;;;;;4.72;3.22;;;;;;;;;;5034836;28;20037;-63
2024/01/16 10:51:28;;;;;;;3.83;3.10;;;;;;;;;;5035042;28;20030;-64
2024/01/16 10:54:00;;;;;;;5.78;4.10;;;;;;;;;;5034441;28;20029;-63
2024/01/16 10:56:28;;;;;;;5.47;4.22;;;;;;;;;;5034385;28;20029;-64
2024/01/16 10:59:08;;;;;;;7.53;4.28;;;;;;;;;;5034532;28;20030;-63
2024/01/16 11:01:34;;;;;;;;;;;;;;;;;;5035022;28;20033;-63
2024/01/16 11:04:01;;;;;;;6.97;4.43;;;;;;;;;;5034294;28;20287;-64
2024/01/16 11:06:28;;;;;;;7.15;4.05;;;;;;;;;;5034433;28;20267;-64
2024/01/16 11:08:53;;;;;;;6.88;4.32;;;;;;;;;;5034447;28;20396;-64
2024/01/16 11:11:19;;;;;;;7.05;4.47;;;;;;;;;;5034143;28;20029;-64
2024/01/16 11:13:46;;;;;;;6.80;4.38;;;;;;;;;;5034103;28;20076;-64
2024/01/16 11:16:12;;;;;;;5.22;4.28;;;;;;;;;;5034057;28;20029;-64
2024/01/16 11:18:37;;;;;;;5.57;4.05;;;;;;;;;;5033964;28;20144;-64
2024/01/16 11:21:07;;;;;;;5.47;4.70;;;;;;;;;;5034535;28;20056;-64
2024/01/16 11:23:34;;;;;;;5.65;4.38;;;;;;;;;;5034001;28;20065;-63
2024/01/16 11:26:00;;;;;;;7.28;5.50;;;;;;;;;;5033924;28;20041;-63
2024/01/16 11:28:31;;;;;;;6.43;5.10;;;;;;;;;;5034176;28;20083;-64
2024/01/16 11:30:56;;;;;;;4.88;3.92;;;;;;;;;;5016503;28;20039;-64
2024/01/16 11:33:31;;;;;;;3.78;3.22;;;;;;;;;;5034351;28;20116;-64
2024/01/16 11:35:56;;;;;;;3.65;3.10;;;;;;;;;;5034116;28;20022;-64
2024/01/16 11:38:26;;;;;;;4.10;3.00;;;;;;;;;;5034027;28;20033;-64
2024/01/16 11:40:52;;;;;;;3.65;3.10;;;;;;;;;;5033978;28;20086;-64
2024/01/16 11:43:38;;;;;;;3.50;3.13;;;;;;;;;;5033692;28;20029;-64
2024/01/16 11:46:09;;;;;;;4.60;2.92;;;;;;;;;;5033700;28;20026;-63
2024/01/16 11:48:35;;;;;;;3.17;2.92;;;;;;;;;;5033912;28;20354;-64
2024/01/16 11:51:22;;;;;;;4.10;2.83;;;;;;;;;;5033626;28;20087;-64
2024/01/16 11:53:47;;;;;;;3.40;3.10;;;;;;;;;;5033986;28;20033;-64
2024/01/16 11:56:18;;;;;;;3.55;2.88;;;;;;;;;;5033522;28;20113;-64
2024/01/16 11:58:46;;;;;;;3.92;3.50;;;;;;;;;;5033759;28;20056;-64
2024/01/16 12:01:12;;;;;;;2.72;2.40;;;;;;;;;;5033743;28;20377;-64
2024/01/16 12:03:37;;;;;;;3.05;2.85;;;;;;;;;;5033495;28;20018;-64
2024/01/16 12:06:06;;;;;;;2.90;2.70;;;;;;;;;;5033977;28;20056;-64
2024/01/16 12:08:31;;;;;;;3.13;2.88;;;;;;;;;;5033996;28;20061;-64
2024/01/16 12:10:57;;;;;;;3.15;2.75;;;;;;;;;;5033697;28;20049;-64
2024/01/16 12:13:24;;;;;;;2.92;2.60;;;;;;;;;;5033410;28;20439;-64
2024/01/16 12:15:58;;;;;;;2.33;2.13;;;;;;;;;;5016018;28;20069;-64
2024/01/16 12:18:24;;;;;;;2.95;2.20;;;;;;;;;;5033643;28;20079;-64
2024/01/16 12:20:50;;;;;;;2.30;1.90;;;;;;;;;;5033813;28;20041;-64
2024/01/16 12:23:16;;;;;;;2.42;2.22;;;;;;;;;;5033273;28;20026;-64
2024/01/16 12:25:41;;;;;;;2.75;1.95;;;;;;;;;;5033123;28;20052;-61
2024/01/16 12:28:07;;;;;;;2.17;1.98;;;;;;;;;;5033530;28;20101;-63
2024/01/16 12:30:34;;;;;;;2.40;2.20;;;;;;;;;;5033231;28;20041;-63
2024/01/16 12:33:09;;;;;;;3.50;2.08;;;;;;;;;;5033513;28;20052;-63
2024/01/16 12:35:34;;;;;;;4.03;2.33;;;;;;;;;;5033767;28;20025;-62
2024/01/16 12:38:00;;;;;;;1.88;1.77;;;;;;;;;;5033148;28;20482;-62
2024/01/16 12:40:26;;;;;;;3.38;1.92;;;;;;;;;;5033384;28;20029;-62
2024/01/16 12:42:53;;;;;;;2.50;2.00;;;;;;;;;;5033409;28;20060;-62
2024/01/16 12:45:18;;;;;;;2.10;1.70;;;;;;;;;;5033385;28;20488;-62
2024/01/16 12:47:44;;;;;;;2.42;2.00;;;;;;;;;;5033126;28;20051;-62
2024/01/16 12:50:10;;;;;;;1.75;1.55;;;;;;;;;;5033618;28;20025;-62
2024/01/16 12:52:35;;;;;;;2.47;1.77;;;;;;;;;;5034282;28;20428;-62
2024/01/16 12:55:01;;;;;;;2.13;1.73;;;;;;;;;;5019074;28;20080;-62
2024/01/16 12:57:26;;;;;;;2.00;1.80;;;;;;;;;;5036991;28;20045;-62
2024/01/16 12:59:52;;;;;;;1.60;1.50;;;;;;;;;;5036563;28;20461;-62
2024/01/16 13:02:24;;;;;;;1.50;1.40;;;;;;;;;;5036601;28;20109;-62
2024/01/16 13:04:57;;;;;;;1.95;1.80;;;;;;;;;;5036790;28;20464;-62
2024/01/16 13:07:22;;;;;;;2.03;1.85;;;;;;;;;;5036766;28;20049;-62
2024/01/16 13:09:47;;;;;;;2.38;2.17;;;;;;;;;;5036716;28;20056;-62
2024/01/16 13:12:20;;;;;;;2.78;2.50;;;;;;;;;;5018759;28;20429;-62
2024/01/16 13:14:46;;;;;;;2.53;1.92;;;;;;;;;;5036389;28;20037;-62
2024/01/16 13:17:11;;;;;;;3.17;2.05;;;;;;;;;;5035571;28;20533;-62
2024/01/16 13:19:37;;;;;;;3.03;1.80;;;;;;;;;;5018362;28;20033;-63
2024/01/16 13:22:04;;;;;;;2.28;2.08;;;;;;;;;;5018237;28;20029;-63
2024/01/16 13:24:29;;;;;;;2.50;2.30;;;;;;;;;;5035997;28;20034;-64
2024/01/16 13:26:55;;;;;;;2.88;2.58;;;;;;;;;;5036059;28;20032;-64
2024/01/16 13:29:21;;;;;;;3.25;2.17;;;;;;;;;;5036541;28;20041;-64
2024/01/16 13:31:46;;;;;;;2.47;2.22;;;;;;;;;;5035808;28;20029;-64
2024/01/16 13:34:12;;;;;;;2.45;2.25;;;;;;;;;;5035564;28;20378;-64
2024/01/16 13:36:38;;;;;;;3.65;2.72;;;;;;;;;;5035216;28;20021;-64
2024/01/16 13:39:03;;;;;;;2.22;2.03;;;;;;;;;;5035252;28;20035;-64
2024/01/16 13:41:29;;;;;;;3.25;2.10;;;;;;;;;;5017673;28;20509;-64
2024/01/16 13:43:54;;;;;;;2.35;2.22;;;;;;;;;;5035079;28;20034;-64
2024/01/16 13:46:20;;;;;;;2.35;2.08;;;;;;;;;;5036139;28;20033;-64
2024/01/16 13:48:45;;;;;;;2.95;2.65;;;;;;;;;;5035966;28;20026;-64
2024/01/16 13:51:11;;;;;;;3.47;2.83;;;;;;;;;;5035684;28;20026;-64
2024/01/16 13:53:36;;;;;;;2.97;2.67;;;;;;;;;;5035624;28;20021;-64
2024/01/16 13:56:02;;;;;;;3.85;3.45;;;;;;;;;;5035909;28;20155;-64
2024/01/16 13:58:27;;;;;;;5.75;4.00;;;;;;;;;;5034827;28;20075;-64
2024/01/16 14:00:53;;;;;;;3.13;2.85;;;;;;;;;;5033994;28;20040;-64
2024/01/16 14:03:19;;;;;;;2.72;2.53;;;;;;;;;;5035877;28;20026;-64
2024/01/16 14:05:45;;;;;;;4.47;3.03;;;;;;;;;;5035336;28;20436;-64
2024/01/16 14:08:12;;;;;;;4.22;3.58;;;;;;;;;;5018389;28;20056;-64
2024/01/16 14:10:38;;;;;;;5.28;3.88;;;;;;;;;;5035654;28;20127;-64
2024/01/16 14:13:04;;;;;;;5.45;4.10;;;;;;;;;;5017535;28;20038;-64
2024/01/16 14:15:30;;;;;;;5.72;4.50;;;;;;;;;;5035485;28;20041;-64
2024/01/16 14:17:56;;;;;;;7.72;4.93;;;;;;;;;;5035382;28;20045;-64
2024/01/16 14:20:26;;;;;;;9.00;5.45;;;;;;;;;;5034903;28;20385;-66
2024/01/16 14:22:55;;;;;;;7.50;4.78;;;;;;;;;;5017741;28;20056;-66
2024/01/16 14:25:20;;;;;;;4.30;3.90;;;;;;;;;;5034842;28;20041;-67
2024/01/16 14:27:56;;;;;;;5.13;3.67;;;;;;;;;;5034953;28;20495;-67
2024/01/16 14:30:22;;;;;;;5.72;3.70;;;;;;;;;;5017661;28;20037;-67
2024/01/16 14:32:47;;;;;;;6.60;4.97;;;;;;;;;;5034942;28;20030;-67
2024/01/16 14:35:13;;;;;;;5.68;5.07;;;;;;;;;;5033863;28;20040;-67
2024/01/16 14:37:40;;;;;;;6.50;5.30;;;;;;;;;;5032736;28;20077;-67